sensor_id;sensor_type;location;lat;lon;timestamp;P1;durP1;ratioP1;P2;durP2;ratioP2
487;SDS011;16586;48.976;9.584;2022-12-11T00:01:53;6.88;;;6.47;;
487;SDS011;16586;48.976;9.584;2022-12-11T00:04:20;6.68;;;6.28;;
487;SDS011;16586;48.976;9.584;2022-12-11T00:06:47;6.00;;;5.70;;
487;SDS011;16586;48.976;9.584;2022-12-11T00:09:14;6.43;;;5.95;;
487;SDS011;16586;48.976;9.584;2022-12-11T00:11:41;5.80;;;5.50;;
487;SDS011;16586;48.976;9.584;2022-12-11T00:14:09;5.90;;;5.60;;
487;SDS011;16586;48.976;9.584;2022-12-11T00:16:37;5.80;;;5.60;;
487;SDS011;16586;48.976;9.584;2022-12-11T00:19:04;5.15;;;4.85;;
487;SDS011;16586;48.976;9.584;2022-12-11T00:21:31;6.10;;;5.80;;
487;SDS011;16586;48.976;9.584;2022-12-11T00:23:58;5.82;;;5.53;;
487;SDS011;16586;48.976;9.584;2022-12-11T00:26:25;6.80;;;6.40;;
487;SDS011;16586;48.976;9.584;2022-12-11T00:28:52;6.88;;;6.22;;
487;SDS011;16586;48.976;9.584;2022-12-11T00:31:21;7.20;;;6.80;;
487;SDS011;16586;48.976;9.584;2022-12-11T00:33:50;8.80;;;8.30;;
487;SDS011;16586;48.976;9.584;2022-12-11T00:36:18;8.15;;;7.75;;
487;SDS011;16586;48.976;9.584;2022-12-11T00:38:46;8.70;;;8.20;;
487;SDS011;16586;48.976;9.584;2022-12-11T00:41:13;8.90;;;8.10;;
487;SDS011;16586;48.976;9.584;2022-12-11T00:43:41;8.83;;;8.33;;
487;SDS011;16586;48.976;9.584;2022-12-11T00:46:07;8.77;;;8.27;;
487;SDS011;16586;48.976;9.584;2022-12-11T00:48:35;9.05;;;8.55;;
487;SDS011;16586;48.976;9.584;2022-12-11T00:51:03;8.68;;;8.07;;
487;SDS011;16586;48.976;9.584;2022-12-11T00:53:30;8.45;;;7.97;;
487;SDS011;16586;48.976;9.584;2022-12-11T00:55:57;7.97;;;7.57;;
487;SDS011;16586;48.976;9.584;2022-12-11T00:58:24;7.13;;;6.72;;
487;SDS011;16586;48.976;9.584;2022-12-11T01:00:50;7.40;;;7.05;;
487;SDS011;16586;48.976;9.584;2022-12-11T01:03:17;6.68;;;6.28;;
487;SDS011;16586;48.976;9.584;2022-12-11T01:05:51;5.78;;;5.38;;
487;SDS011;16586;48.976;9.584;2022-12-11T01:08:19;5.82;;;5.53;;
487;SDS011;16586;48.976;9.584;2022-12-11T01:10:47;6.85;;;6.45;;
487;SDS011;16586;48.976;9.584;2022-12-11T01:13:12;6.65;;;6.10;;
487;SDS011;16586;48.976;9.584;2022-12-11T01:15:41;6.50;;;6.10;;
487;SDS011;16586;48.976;9.584;2022-12-11T01:18:10;6.50;;;6.10;;
487;SDS011;16586;48.976;9.584;2022-12-11T01:20:38;6.50;;;6.10;;
487;SDS011;16586;48.976;9.584;2022-12-11T01:23:07;5.10;;;4.80;;
487;SDS011;16586;48.976;9.584;2022-12-11T01:25:37;5.20;;;4.90;;
487;SDS011;16586;48.976;9.584;2022-12-11T01:28:05;5.10;;;4.87;;
487;SDS011;16586;48.976;9.584;2022-12-11T01:30:33;5.18;;;4.88;;
487;SDS011;16586;48.976;9.584;2022-12-11T01:33:00;5.13;;;4.85;;
487;SDS011;16586;48.976;9.584;2022-12-11T01:35:27;5.70;;;5.40;;
487;SDS011;16586;48.976;9.584;2022-12-11T01:37:54;5.25;;;4.95;;
487;SDS011;16586;48.976;9.584;2022-12-11T01:40:21;5.90;;;4.70;;
487;SDS011;16586;48.976;9.584;2022-12-11T01:42:49;5.20;;;4.90;;
487;SDS011;16586;48.976;9.584;2022-12-11T01:45:27;5.30;;;5.00;;
487;SDS011;16586;48.976;9.584;2022-12-11T01:48:02;5.45;;;5.15;;
487;SDS011;16586;48.976;9.584;2022-12-11T01:50:32;5.20;;;4.90;;
487;SDS011;16586;48.976;9.584;2022-12-11T01:53:01;5.33;;;5.03;;
487;SDS011;16586;48.976;9.584;2022-12-11T01:55:32;5.60;;;5.30;;
487;SDS011;16586;48.976;9.584;2022-12-11T01:58:01;5.10;;;4.80;;
487;SDS011;16586;48.976;9.584;2022-12-11T02:00:28;5.60;;;5.30;;
487;SDS011;16586;48.976;9.584;2022-12-11T02:02:55;5.45;;;5.15;;
487;SDS011;16586;48.976;9.584;2022-12-11T02:05:22;4.90;;;4.60;;
487;SDS011;16586;48.976;9.584;2022-12-11T02:07:50;4.97;;;4.68;;
487;SDS011;16586;48.976;9.584;2022-12-11T02:10:20;4.80;;;4.50;;
487;SDS011;16586;48.976;9.584;2022-12-11T02:12:52;3.80;;;3.60;;
487;SDS011;16586;48.976;9.584;2022-12-11T02:15:27;5.13;;;4.60;;
487;SDS011;16586;48.976;9.584;2022-12-11T02:18:04;3.83;;;3.63;;
487;SDS011;16586;48.976;9.584;2022-12-11T02:20:40;4.40;;;4.10;;
487;SDS011;16586;48.976;9.584;2022-12-11T02:23:18;3.45;;;3.33;;
487;SDS011;16586;48.976;9.584;2022-12-11T02:26:04;3.85;;;3.53;;
487;SDS011;16586;48.976;9.584;2022-12-11T02:28:46;3.70;;;3.60;;
487;SDS011;16586;48.976;9.584;2022-12-11T02:31:15;3.90;;;3.70;;
487;SDS011;16586;48.976;9.584;2022-12-11T02:33:49;4.50;;;4.20;;
487;SDS011;16586;48.976;9.584;2022-12-11T02:36:21;3.78;;;3.60;;
487;SDS011;16586;48.976;9.584;2022-12-11T02:38:51;3.63;;;3.42;;
487;SDS011;16586;48.976;9.584;2022-12-11T02:41:20;3.78;;;3.67;;
487;SDS011;16586;48.976;9.584;2022-12-11T02:43:49;3.90;;;3.70;;
487;SDS011;16586;48.976;9.584;2022-12-11T02:46:18;3.13;;;2.97;;
487;SDS011;16586;48.976;9.584;2022-12-11T02:48:47;3.50;;;3.30;;
487;SDS011;16586;48.976;9.584;2022-12-11T02:51:17;3.10;;;2.90;;
487;SDS011;16586;48.976;9.584;2022-12-11T02:53:47;3.30;;;3.10;;
487;SDS011;16586;48.976;9.584;2022-12-11T02:56:17;3.78;;;3.58;;
487;SDS011;16586;48.976;9.584;2022-12-11T02:58:51;3.83;;;3.63;;
487;SDS011;16586;48.976;9.584;2022-12-11T03:01:20;3.80;;;3.60;;
487;SDS011;16586;48.976;9.584;2022-12-11T03:03:47;3.80;;;3.60;;
487;SDS011;16586;48.976;9.584;2022-12-11T03:06:15;3.57;;;3.20;;
487;SDS011;16586;48.976;9.584;2022-12-11T03:08:45;3.17;;;3.00;;
487;SDS011;16586;48.976;9.584;2022-12-11T03:11:11;4.30;;;3.70;;
487;SDS011;16586;48.976;9.584;2022-12-11T03:13:39;3.80;;;3.60;;
487;SDS011;16586;48.976;9.584;2022-12-11T03:16:09;3.40;;;3.20;;
487;SDS011;16586;48.976;9.584;2022-12-11T03:18:43;4.00;;;3.50;;
487;SDS011;16586;48.976;9.584;2022-12-11T03:21:16;3.20;;;3.00;;
487;SDS011;16586;48.976;9.584;2022-12-11T03:23:49;3.20;;;2.70;;
487;SDS011;16586;48.976;9.584;2022-12-11T03:26:21;3.45;;;3.33;;
487;SDS011;16586;48.976;9.584;2022-12-11T03:28:50;4.25;;;3.50;;
487;SDS011;16586;48.976;9.584;2022-12-11T03:31:24;3.60;;;3.40;;
487;SDS011;16586;48.976;9.584;2022-12-11T03:33:56;4.00;;;3.30;;
487;SDS011;16586;48.976;9.584;2022-12-11T03:36:29;3.65;;;3.20;;
487;SDS011;16586;48.976;9.584;2022-12-11T03:38:58;3.50;;;3.30;;
487;SDS011;16586;48.976;9.584;2022-12-11T03:41:30;3.73;;;3.53;;
487;SDS011;16586;48.976;9.584;2022-12-11T03:44:00;4.50;;;3.90;;
487;SDS011;16586;48.976;9.584;2022-12-11T03:46:30;3.45;;;3.25;;
487;SDS011;16586;48.976;9.584;2022-12-11T03:49:00;4.32;;;4.03;;
487;SDS011;16586;48.976;9.584;2022-12-11T03:51:30;4.00;;;3.80;;
487;SDS011;16586;48.976;9.584;2022-12-11T03:53:59;4.40;;;4.10;;
487;SDS011;16586;48.976;9.584;2022-12-11T03:56:26;4.15;;;3.92;;
487;SDS011;16586;48.976;9.584;2022-12-11T03:58:56;3.72;;;3.55;;
487;SDS011;16586;48.976;9.584;2022-12-11T04:01:23;3.80;;;3.30;;
487;SDS011;16586;48.976;9.584;2022-12-11T04:03:51;3.67;;;3.53;;
487;SDS011;16586;48.976;9.584;2022-12-11T04:06:18;3.58;;;3.40;;
487;SDS011;16586;48.976;9.584;2022-12-11T04:08:45;4.07;;;3.88;;
487;SDS011;16586;48.976;9.584;2022-12-11T04:11:12;4.60;;;4.30;;
487;SDS011;16586;48.976;9.584;2022-12-11T04:13:56;3.90;;;3.70;;
487;SDS011;16586;48.976;9.584;2022-12-11T04:16:40;3.40;;;3.25;;
487;SDS011;16586;48.976;9.584;2022-12-11T04:19:08;4.35;;;4.05;;
487;SDS011;16586;48.976;9.584;2022-12-11T04:21:54;4.17;;;3.93;;
487;SDS011;16586;48.976;9.584;2022-12-11T04:24:38;4.72;;;4.43;;
487;SDS011;16586;48.976;9.584;2022-12-11T04:27:05;4.30;;;3.72;;
487;SDS011;16586;48.976;9.584;2022-12-11T04:29:32;4.72;;;4.10;;
487;SDS011;16586;48.976;9.584;2022-12-11T04:31:59;5.35;;;5.05;;
487;SDS011;16586;48.976;9.584;2022-12-11T04:34:27;5.03;;;4.72;;
487;SDS011;16586;48.976;9.584;2022-12-11T04:36:55;5.22;;;4.95;;
487;SDS011;16586;48.976;9.584;2022-12-11T04:39:21;4.97;;;4.68;;
487;SDS011;16586;48.976;9.584;2022-12-11T04:41:48;5.22;;;4.93;;
487;SDS011;16586;48.976;9.584;2022-12-11T04:44:15;4.88;;;4.57;;
487;SDS011;16586;48.976;9.584;2022-12-11T04:46:42;5.20;;;4.90;;
487;SDS011;16586;48.976;9.584;2022-12-11T04:49:08;5.47;;;5.18;;
487;SDS011;16586;48.976;9.584;2022-12-11T04:51:37;5.47;;;5.18;;
487;SDS011;16586;48.976;9.584;2022-12-11T04:54:04;5.78;;;5.47;;
487;SDS011;16586;48.976;9.584;2022-12-11T04:56:31;5.80;;;5.50;;
487;SDS011;16586;48.976;9.584;2022-12-11T04:58:58;5.40;;;5.10;;
487;SDS011;16586;48.976;9.584;2022-12-11T05:01:25;5.80;;;5.50;;
487;SDS011;16586;48.976;9.584;2022-12-11T05:03:52;5.30;;;5.00;;
487;SDS011;16586;48.976;9.584;2022-12-11T05:06:20;5.90;;;5.60;;
487;SDS011;16586;48.976;9.584;2022-12-11T05:08:48;5.38;;;5.10;;
487;SDS011;16586;48.976;9.584;2022-12-11T05:11:15;6.00;;;5.70;;
487;SDS011;16586;48.976;9.584;2022-12-11T05:13:42;5.60;;;5.30;;
487;SDS011;16586;48.976;9.584;2022-12-11T05:16:09;6.35;;;5.97;;
487;SDS011;16586;48.976;9.584;2022-12-11T05:18:38;6.20;;;5.90;;
487;SDS011;16586;48.976;9.584;2022-12-11T05:21:05;5.63;;;5.30;;
487;SDS011;16586;48.976;9.584;2022-12-11T05:23:34;6.60;;;6.20;;
487;SDS011;16586;48.976;9.584;2022-12-11T05:26:03;6.50;;;5.85;;
487;SDS011;16586;48.976;9.584;2022-12-11T05:28:32;6.00;;;5.70;;
487;SDS011;16586;48.976;9.584;2022-12-11T05:31:01;6.82;;;6.43;;
487;SDS011;16586;48.976;9.584;2022-12-11T05:33:29;6.60;;;5.90;;
487;SDS011;16586;48.976;9.584;2022-12-11T05:35:56;6.20;;;5.90;;
487;SDS011;16586;48.976;9.584;2022-12-11T05:38:23;6.18;;;5.88;;
487;SDS011;16586;48.976;9.584;2022-12-11T05:40:54;6.27;;;5.90;;
487;SDS011;16586;48.976;9.584;2022-12-11T05:43:24;6.13;;;5.82;;
487;SDS011;16586;48.976;9.584;2022-12-11T05:45:52;5.88;;;5.57;;
487;SDS011;16586;48.976;9.584;2022-12-11T05:48:19;6.68;;;6.28;;
487;SDS011;16586;48.976;9.584;2022-12-11T05:50:54;6.30;;;5.95;;
487;SDS011;16586;48.976;9.584;2022-12-11T05:53:22;6.60;;;6.00;;
487;SDS011;16586;48.976;9.584;2022-12-11T05:55:50;6.50;;;6.10;;
487;SDS011;16586;48.976;9.584;2022-12-11T05:58:17;5.93;;;5.63;;
487;SDS011;16586;48.976;9.584;2022-12-11T06:00:45;6.40;;;6.03;;
487;SDS011;16586;48.976;9.584;2022-12-11T06:03:13;6.90;;;6.50;;
487;SDS011;16586;48.976;9.584;2022-12-11T06:05:41;7.20;;;6.80;;
487;SDS011;16586;48.976;9.584;2022-12-11T06:08:07;6.82;;;6.45;;
487;SDS011;16586;48.976;9.584;2022-12-11T06:10:34;6.50;;;6.10;;
487;SDS011;16586;48.976;9.584;2022-12-11T06:13:01;6.60;;;6.10;;
487;SDS011;16586;48.976;9.584;2022-12-11T06:15:28;5.97;;;5.68;;
487;SDS011;16586;48.976;9.584;2022-12-11T06:17:56;7.20;;;6.80;;
487;SDS011;16586;48.976;9.584;2022-12-11T06:20:23;6.10;;;5.80;;
487;SDS011;16586;48.976;9.584;2022-12-11T06:22:50;5.73;;;5.43;;
487;SDS011;16586;48.976;9.584;2022-12-11T06:25:17;6.40;;;6.00;;
487;SDS011;16586;48.976;9.584;2022-12-11T06:27:43;5.43;;;5.13;;
487;SDS011;16586;48.976;9.584;2022-12-11T06:30:10;6.47;;;6.07;;
487;SDS011;16586;48.976;9.584;2022-12-11T06:32:38;5.82;;;5.53;;
487;SDS011;16586;48.976;9.584;2022-12-11T06:35:06;6.07;;;5.78;;
487;SDS011;16586;48.976;9.584;2022-12-11T06:37:33;5.53;;;5.23;;
487;SDS011;16586;48.976;9.584;2022-12-11T06:40:01;5.70;;;5.40;;
487;SDS011;16586;48.976;9.584;2022-12-11T06:42:28;5.43;;;5.13;;
487;SDS011;16586;48.976;9.584;2022-12-11T06:44:55;5.35;;;5.05;;
487;SDS011;16586;48.976;9.584;2022-12-11T06:47:23;5.80;;;5.50;;
487;SDS011;16586;48.976;9.584;2022-12-11T06:49:50;5.82;;;5.53;;
487;SDS011;16586;48.976;9.584;2022-12-11T06:52:19;6.47;;;5.10;;
487;SDS011;16586;48.976;9.584;2022-12-11T06:54:46;5.50;;;4.85;;
487;SDS011;16586;48.976;9.584;2022-12-11T06:57:12;5.60;;;5.30;;
487;SDS011;16586;48.976;9.584;2022-12-11T06:59:39;5.40;;;5.10;;
487;SDS011;16586;48.976;9.584;2022-12-11T07:02:08;5.03;;;4.82;;
487;SDS011;16586;48.976;9.584;2022-12-11T07:04:37;5.82;;;5.28;;
487;SDS011;16586;48.976;9.584;2022-12-11T07:07:04;6.07;;;5.57;;
487;SDS011;16586;48.976;9.584;2022-12-11T07:09:32;5.05;;;4.75;;
487;SDS011;16586;48.976;9.584;2022-12-11T07:11:59;5.40;;;4.85;;
487;SDS011;16586;48.976;9.584;2022-12-11T07:14:28;5.00;;;4.80;;
487;SDS011;16586;48.976;9.584;2022-12-11T07:16:54;5.60;;;4.50;;
487;SDS011;16586;48.976;9.584;2022-12-11T07:19:21;5.10;;;4.80;;
487;SDS011;16586;48.976;9.584;2022-12-11T07:21:48;6.27;;;5.50;;
487;SDS011;16586;48.976;9.584;2022-12-11T07:24:15;5.93;;;5.63;;
487;SDS011;16586;48.976;9.584;2022-12-11T07:26:44;5.20;;;4.70;;
487;SDS011;16586;48.976;9.584;2022-12-11T07:29:11;5.68;;;5.38;;
487;SDS011;16586;48.976;9.584;2022-12-11T07:31:38;4.85;;;4.55;;
487;SDS011;16586;48.976;9.584;2022-12-11T07:34:05;5.65;;;5.35;;
487;SDS011;16586;48.976;9.584;2022-12-11T07:36:32;5.03;;;4.72;;
487;SDS011;16586;48.976;9.584;2022-12-11T07:39:00;5.25;;;4.95;;
487;SDS011;16586;48.976;9.584;2022-12-11T07:41:27;5.30;;;5.00;;
487;SDS011;16586;48.976;9.584;2022-12-11T07:43:57;6.10;;;5.80;;
487;SDS011;16586;48.976;9.584;2022-12-11T07:46:26;6.50;;;6.10;;
487;SDS011;16586;48.976;9.584;2022-12-11T07:48:54;6.93;;;6.20;;
487;SDS011;16586;48.976;9.584;2022-12-11T07:51:22;6.47;;;6.07;;
487;SDS011;16586;48.976;9.584;2022-12-11T07:53:52;6.43;;;6.05;;
487;SDS011;16586;48.976;9.584;2022-12-11T07:56:21;6.28;;;5.95;;
487;SDS011;16586;48.976;9.584;2022-12-11T07:58:48;7.22;;;6.70;;
487;SDS011;16586;48.976;9.584;2022-12-11T08:01:17;7.30;;;6.90;;
487;SDS011;16586;48.976;9.584;2022-12-11T08:03:45;7.80;;;7.40;;
487;SDS011;16586;48.976;9.584;2022-12-11T08:06:12;8.55;;;8.05;;
487;SDS011;16586;48.976;9.584;2022-12-11T08:08:40;8.32;;;7.93;;
487;SDS011;16586;48.976;9.584;2022-12-11T08:11:09;9.10;;;8.48;;
487;SDS011;16586;48.976;9.584;2022-12-11T08:13:37;8.20;;;7.80;;
487;SDS011;16586;48.976;9.584;2022-12-11T08:16:05;8.27;;;7.88;;
487;SDS011;16586;48.976;9.584;2022-12-11T08:18:36;8.80;;;8.30;;
487;SDS011;16586;48.976;9.584;2022-12-11T08:21:04;8.68;;;8.18;;
487;SDS011;16586;48.976;9.584;2022-12-11T08:23:32;8.07;;;7.68;;
487;SDS011;16586;48.976;9.584;2022-12-11T08:26:00;8.63;;;8.13;;
487;SDS011;16586;48.976;9.584;2022-12-11T08:28:28;10.88;;;10.27;;
487;SDS011;16586;48.976;9.584;2022-12-11T08:30:55;9.07;;;8.57;;
487;SDS011;16586;48.976;9.584;2022-12-11T08:33:22;10.05;;;9.25;;
487;SDS011;16586;48.976;9.584;2022-12-11T08:35:50;9.60;;;9.13;;
487;SDS011;16586;48.976;9.584;2022-12-11T08:38:17;9.52;;;9.02;;
487;SDS011;16586;48.976;9.584;2022-12-11T08:40:44;9.48;;;8.98;;
487;SDS011;16586;48.976;9.584;2022-12-11T08:43:11;8.48;;;8.00;;
487;SDS011;16586;48.976;9.584;2022-12-11T08:45:38;9.40;;;8.90;;
487;SDS011;16586;48.976;9.584;2022-12-11T08:48:04;8.10;;;7.70;;
487;SDS011;16586;48.976;9.584;2022-12-11T08:50:31;7.55;;;7.15;;
487;SDS011;16586;48.976;9.584;2022-12-11T08:53:00;8.75;;;7.75;;
487;SDS011;16586;48.976;9.584;2022-12-11T08:55:26;8.05;;;7.65;;
487;SDS011;16586;48.976;9.584;2022-12-11T08:57:53;8.00;;;7.60;;
487;SDS011;16586;48.976;9.584;2022-12-11T09:00:20;8.10;;;7.70;;
487;SDS011;16586;48.976;9.584;2022-12-11T09:02:47;7.03;;;6.63;;
487;SDS011;16586;48.976;9.584;2022-12-11T09:11:00;7.68;;;7.30;;
487;SDS011;16586;48.976;9.584;2022-12-11T09:13:28;7.87;;;7.47;;
487;SDS011;16586;48.976;9.584;2022-12-11T09:15:55;7.80;;;7.40;;
487;SDS011;16586;48.976;9.584;2022-12-11T09:18:21;8.70;;;8.20;;
487;SDS011;16586;48.976;9.584;2022-12-11T09:20:56;8.30;;;7.90;;
487;SDS011;16586;48.976;9.584;2022-12-11T09:23:23;8.30;;;7.90;;
487;SDS011;16586;48.976;9.584;2022-12-11T09:25:52;8.23;;;7.80;;
487;SDS011;16586;48.976;9.584;2022-12-11T09:28:18;8.20;;;7.72;;
487;SDS011;16586;48.976;9.584;2022-12-11T09:30:45;8.00;;;7.60;;
487;SDS011;16586;48.976;9.584;2022-12-11T09:33:12;8.00;;;7.60;;
487;SDS011;16586;48.976;9.584;2022-12-11T09:35:39;8.77;;;7.72;;
487;SDS011;16586;48.976;9.584;2022-12-11T09:38:06;8.20;;;7.45;;
487;SDS011;16586;48.976;9.584;2022-12-11T09:40:33;7.55;;;7.15;;
487;SDS011;16586;48.976;9.584;2022-12-11T09:43:08;7.82;;;7.43;;
487;SDS011;16586;48.976;9.584;2022-12-11T09:45:44;7.60;;;7.20;;
487;SDS011;16586;48.976;9.584;2022-12-11T09:48:12;8.18;;;6.72;;
487;SDS011;16586;48.976;9.584;2022-12-11T09:50:42;7.03;;;6.63;;
487;SDS011;16586;48.976;9.584;2022-12-11T09:53:11;7.70;;;7.30;;
487;SDS011;16586;48.976;9.584;2022-12-11T09:55:42;7.70;;;7.30;;
487;SDS011;16586;48.976;9.584;2022-12-11T09:58:17;7.80;;;7.40;;
487;SDS011;16586;48.976;9.584;2022-12-11T10:00:51;7.40;;;7.00;;
487;SDS011;16586;48.976;9.584;2022-12-11T10:06:27;7.80;;;7.38;;
487;SDS011;16586;48.976;9.584;2022-12-11T10:08:59;12.88;;;12.18;;
487;SDS011;16586;48.976;9.584;2022-12-11T10:11:37;8.13;;;7.72;;
487;SDS011;16586;48.976;9.584;2022-12-11T10:14:18;8.60;;;8.10;;
487;SDS011;16586;48.976;9.584;2022-12-11T10:16:51;8.50;;;8.00;;
487;SDS011;16586;48.976;9.584;2022-12-11T10:19:21;9.10;;;8.60;;
487;SDS011;16586;48.976;9.584;2022-12-11T10:21:51;7.90;;;7.50;;
487;SDS011;16586;48.976;9.584;2022-12-11T10:24:22;8.65;;;8.15;;
487;SDS011;16586;48.976;9.584;2022-12-11T10:26:54;7.80;;;7.40;;
487;SDS011;16586;48.976;9.584;2022-12-11T10:29:24;9.10;;;8.60;;
487;SDS011;16586;48.976;9.584;2022-12-11T10:31:52;7.47;;;7.07;;
487;SDS011;16586;48.976;9.584;2022-12-11T10:34:25;7.90;;;7.50;;
487;SDS011;16586;48.976;9.584;2022-12-11T10:36:58;7.70;;;7.30;;
487;SDS011;16586;48.976;9.584;2022-12-11T10:39:25;7.60;;;7.20;;
487;SDS011;16586;48.976;9.584;2022-12-11T10:41:53;7.50;;;7.10;;
487;SDS011;16586;48.976;9.584;2022-12-11T10:44:22;7.25;;;6.90;;
487;SDS011;16586;48.976;9.584;2022-12-11T10:47:01;7.30;;;6.90;;
487;SDS011;16586;48.976;9.584;2022-12-11T10:49:30;6.75;;;6.40;;
487;SDS011;16586;48.976;9.584;2022-12-11T10:51:58;6.53;;;6.20;;
487;SDS011;16586;48.976;9.584;2022-12-11T10:54:31;7.90;;;6.60;;
487;SDS011;16586;48.976;9.584;2022-12-11T10:57:02;7.50;;;7.10;;
487;SDS011;16586;48.976;9.584;2022-12-11T10:59:32;8.23;;;7.83;;
487;SDS011;16586;48.976;9.584;2022-12-11T11:02:04;7.68;;;7.28;;
487;SDS011;16586;48.976;9.584;2022-12-11T11:04:41;8.50;;;7.35;;
487;SDS011;16586;48.976;9.584;2022-12-11T11:07:10;8.77;;;8.18;;
487;SDS011;16586;48.976;9.584;2022-12-11T11:09:39;8.13;;;7.72;;
487;SDS011;16586;48.976;9.584;2022-12-11T11:12:16;8.80;;;8.10;;
487;SDS011;16586;48.976;9.584;2022-12-11T11:14:45;8.07;;;7.47;;
487;SDS011;16586;48.976;9.584;2022-12-11T11:17:14;7.82;;;7.53;;
487;SDS011;16586;48.976;9.584;2022-12-11T11:19:44;7.50;;;7.10;;
487;SDS011;16586;48.976;9.584;2022-12-11T11:22:13;7.82;;;7.40;;
487;SDS011;16586;48.976;9.584;2022-12-11T11:24:43;8.70;;;8.30;;
487;SDS011;16586;48.976;9.584;2022-12-11T11:27:12;7.85;;;7.47;;
487;SDS011;16586;48.976;9.584;2022-12-11T11:29:46;7.78;;;7.38;;
487;SDS011;16586;48.976;9.584;2022-12-11T11:32:19;8.35;;;7.93;;
487;SDS011;16586;48.976;9.584;2022-12-11T11:34:49;7.97;;;7.57;;
487;SDS011;16586;48.976;9.584;2022-12-11T11:37:23;7.38;;;6.78;;
487;SDS011;16586;48.976;9.584;2022-12-11T11:39:54;7.50;;;6.53;;
487;SDS011;16586;48.976;9.584;2022-12-11T11:42:29;7.88;;;7.30;;
487;SDS011;16586;48.976;9.584;2022-12-11T11:45:05;7.90;;;7.43;;
487;SDS011;16586;48.976;9.584;2022-12-11T11:47:42;8.23;;;7.82;;
487;SDS011;16586;48.976;9.584;2022-12-11T11:50:16;7.25;;;6.93;;
487;SDS011;16586;48.976;9.584;2022-12-11T11:52:48;7.30;;;6.90;;
487;SDS011;16586;48.976;9.584;2022-12-11T11:55:17;9.13;;;8.10;;
487;SDS011;16586;48.976;9.584;2022-12-11T11:57:52;7.97;;;7.57;;
487;SDS011;16586;48.976;9.584;2022-12-11T12:00:23;6.93;;;6.53;;
487;SDS011;16586;48.976;9.584;2022-12-11T12:02:53;7.90;;;7.50;;
487;SDS011;16586;48.976;9.584;2022-12-11T12:05:24;8.05;;;7.50;;
487;SDS011;16586;48.976;9.584;2022-12-11T12:07:59;9.10;;;8.50;;
487;SDS011;16586;48.976;9.584;2022-12-11T12:10:33;8.63;;;7.80;;
487;SDS011;16586;48.976;9.584;2022-12-11T12:13:11;9.20;;;7.90;;
487;SDS011;16586;48.976;9.584;2022-12-11T12:15:43;8.55;;;8.10;;
487;SDS011;16586;48.976;9.584;2022-12-11T12:18:19;8.30;;;7.90;;
487;SDS011;16586;48.976;9.584;2022-12-11T12:20:50;8.77;;;8.27;;
487;SDS011;16586;48.976;9.584;2022-12-11T12:23:33;8.07;;;7.68;;
487;SDS011;16586;48.976;9.584;2022-12-11T12:26:10;7.70;;;7.30;;
487;SDS011;16586;48.976;9.584;2022-12-11T12:28:47;8.80;;;8.30;;
487;SDS011;16586;48.976;9.584;2022-12-11T12:31:24;8.38;;;7.95;;
487;SDS011;16586;48.976;9.584;2022-12-11T12:34:16;8.98;;;8.52;;
487;SDS011;16586;48.976;9.584;2022-12-11T12:36:52;7.70;;;7.30;;
487;SDS011;16586;48.976;9.584;2022-12-11T12:39:26;8.63;;;7.95;;
487;SDS011;16586;48.976;9.584;2022-12-11T12:42:01;7.97;;;7.57;;
487;SDS011;16586;48.976;9.584;2022-12-11T12:44:34;8.10;;;7.60;;
487;SDS011;16586;48.976;9.584;2022-12-11T12:47:08;8.10;;;7.70;;
487;SDS011;16586;48.976;9.584;2022-12-11T12:49:40;8.30;;;7.78;;
487;SDS011;16586;48.976;9.584;2022-12-11T12:52:11;8.63;;;7.50;;
487;SDS011;16586;48.976;9.584;2022-12-11T12:54:41;7.38;;;6.97;;
487;SDS011;16586;48.976;9.584;2022-12-11T12:57:31;10.20;;;8.15;;
487;SDS011;16586;48.976;9.584;2022-12-11T12:59:59;8.68;;;8.00;;
487;SDS011;16586;48.976;9.584;2022-12-11T13:02:27;7.90;;;7.50;;
487;SDS011;16586;48.976;9.584;2022-12-11T13:04:57;8.40;;;7.95;;
487;SDS011;16586;48.976;9.584;2022-12-11T13:07:26;8.35;;;7.93;;
487;SDS011;16586;48.976;9.584;2022-12-11T13:09:56;7.75;;;7.35;;
487;SDS011;16586;48.976;9.584;2022-12-11T13:12:32;7.60;;;7.22;;
487;SDS011;16586;48.976;9.584;2022-12-11T13:17:48;6.57;;;6.18;;
487;SDS011;16586;48.976;9.584;2022-12-11T13:20:17;8.10;;;7.47;;
487;SDS011;16586;48.976;9.584;2022-12-11T13:22:47;7.38;;;6.97;;
487;SDS011;16586;48.976;9.584;2022-12-11T13:25:17;7.10;;;6.70;;
487;SDS011;16586;48.976;9.584;2022-12-11T13:27:47;7.47;;;7.07;;
487;SDS011;16586;48.976;9.584;2022-12-11T13:30:21;8.43;;;7.40;;
487;SDS011;16586;48.976;9.584;2022-12-11T13:32:53;7.65;;;7.10;;
487;SDS011;16586;48.976;9.584;2022-12-11T13:35:29;7.07;;;6.70;;
487;SDS011;16586;48.976;9.584;2022-12-11T13:38:00;6.97;;;6.57;;
487;SDS011;16586;48.976;9.584;2022-12-11T13:40:36;8.00;;;7.60;;
487;SDS011;16586;48.976;9.584;2022-12-11T13:43:06;6.87;;;6.50;;
487;SDS011;16586;48.976;9.584;2022-12-11T13:45:42;7.70;;;7.30;;
487;SDS011;16586;48.976;9.584;2022-12-11T13:48:15;6.80;;;6.30;;
487;SDS011;16586;48.976;9.584;2022-12-11T13:50:47;7.22;;;6.82;;
487;SDS011;16586;48.976;9.584;2022-12-11T13:53:16;7.68;;;7.28;;
487;SDS011;16586;48.976;9.584;2022-12-11T13:55:45;7.38;;;6.97;;
487;SDS011;16586;48.976;9.584;2022-12-11T13:58:21;8.30;;;7.70;;
487;SDS011;16586;48.976;9.584;2022-12-11T14:00:52;7.35;;;7.03;;
487;SDS011;16586;48.976;9.584;2022-12-11T14:03:22;7.20;;;6.80;;
487;SDS011;16586;48.976;9.584;2022-12-11T14:05:51;7.13;;;6.72;;
487;SDS011;16586;48.976;9.584;2022-12-11T14:08:19;8.23;;;7.83;;
487;SDS011;16586;48.976;9.584;2022-12-11T14:10:50;8.05;;;7.13;;
487;SDS011;16586;48.976;9.584;2022-12-11T14:13:19;6.97;;;6.40;;
487;SDS011;16586;48.976;9.584;2022-12-11T14:15:49;6.10;;;5.85;;
487;SDS011;16586;48.976;9.584;2022-12-11T14:18:17;5.85;;;5.30;;
487;SDS011;16586;48.976;9.584;2022-12-11T14:20:53;5.90;;;5.60;;
487;SDS011;16586;48.976;9.584;2022-12-11T14:23:21;5.90;;;5.40;;
487;SDS011;16586;48.976;9.584;2022-12-11T14:25:53;6.87;;;5.67;;
487;SDS011;16586;48.976;9.584;2022-12-11T14:28:21;6.13;;;5.82;;
487;SDS011;16586;48.976;9.584;2022-12-11T14:30:51;6.53;;;6.13;;
487;SDS011;16586;48.976;9.584;2022-12-11T14:33:21;7.07;;;6.50;;
487;SDS011;16586;48.976;9.584;2022-12-11T14:35:50;6.60;;;6.17;;
487;SDS011;16586;48.976;9.584;2022-12-11T14:38:20;5.95;;;5.65;;
487;SDS011;16586;48.976;9.584;2022-12-11T14:40:52;6.53;;;6.13;;
487;SDS011;16586;48.976;9.584;2022-12-11T14:43:22;7.07;;;6.68;;
487;SDS011;16586;48.976;9.584;2022-12-11T14:45:53;7.90;;;7.50;;
487;SDS011;16586;48.976;9.584;2022-12-11T14:48:24;11.45;;;10.85;;
487;SDS011;16586;48.976;9.584;2022-12-11T14:51:04;8.32;;;7.95;;
487;SDS011;16586;48.976;9.584;2022-12-11T14:53:39;8.80;;;8.30;;
487;SDS011;16586;48.976;9.584;2022-12-11T14:56:15;6.85;;;6.45;;
487;SDS011;16586;48.976;9.584;2022-12-11T14:58:53;6.80;;;6.10;;
487;SDS011;16586;48.976;9.584;2022-12-11T15:01:23;5.18;;;4.88;;
487;SDS011;16586;48.976;9.584;2022-12-11T15:04:00;5.28;;;4.97;;
487;SDS011;16586;48.976;9.584;2022-12-11T15:06:41;5.65;;;5.35;;
487;SDS011;16586;48.976;9.584;2022-12-11T15:09:16;6.35;;;5.63;;
487;SDS011;16586;48.976;9.584;2022-12-11T15:11:45;6.18;;;5.88;;
487;SDS011;16586;48.976;9.584;2022-12-11T15:14:14;5.38;;;5.07;;
487;SDS011;16586;48.976;9.584;2022-12-11T15:16:44;5.70;;;5.40;;
487;SDS011;16586;48.976;9.584;2022-12-11T15:19:17;5.80;;;5.35;;
487;SDS011;16586;48.976;9.584;2022-12-11T15:21:49;6.95;;;6.30;;
487;SDS011;16586;48.976;9.584;2022-12-11T15:24:21;6.93;;;6.60;;
487;SDS011;16586;48.976;9.584;2022-12-11T15:26:55;6.70;;;6.30;;
487;SDS011;16586;48.976;9.584;2022-12-11T15:29:26;8.23;;;7.20;;
487;SDS011;16586;48.976;9.584;2022-12-11T15:32:01;7.05;;;6.35;;
487;SDS011;16586;48.976;9.584;2022-12-11T15:34:33;6.78;;;6.38;;
487;SDS011;16586;48.976;9.584;2022-12-11T15:37:02;6.47;;;6.07;;
487;SDS011;16586;48.976;9.584;2022-12-11T15:39:28;9.10;;;8.63;;
487;SDS011;16586;48.976;9.584;2022-12-11T15:41:55;10.60;;;10.05;;
487;SDS011;16586;48.976;9.584;2022-12-11T15:44:22;8.50;;;7.68;;